sensor_id;sensor_type;location;lat;lon;timestamp;P1;durP1;ratioP1;P2;durP2;ratioP2
75152;SDS011;63734;45.218;36.708;2023-06-14T00:00:00;19.42;;;8.38;;
75152;SDS011;63734;45.218;36.708;2023-06-14T00:02:25;10.68;;;7.43;;
75152;SDS011;63734;45.218;36.708;2023-06-14T00:04:51;12.90;;;7.55;;
75152;SDS011;63734;45.218;36.708;2023-06-14T00:07:17;14.15;;;8.32;;
75152;SDS011;63734;45.218;36.708;2023-06-14T00:09:43;12.95;;;8.05;;
75152;SDS011;63734;45.218;36.708;2023-06-14T00:12:09;11.80;;;8.18;;
75152;SDS011;63734;45.218;36.708;2023-06-14T00:14:35;11.55;;;7.20;;
75152;SDS011;63734;45.218;36.708;2023-06-14T00:17:01;11.48;;;7.72;;
75152;SDS011;63734;45.218;36.708;2023-06-14T00:19:27;9.20;;;6.95;;
75152;SDS011;63734;45.218;36.708;2023-06-14T00:21:54;13.10;;;7.65;;
75152;SDS011;63734;45.218;36.708;2023-06-14T00:24:20;14.25;;;6.78;;
75152;SDS011;63734;45.218;36.708;2023-06-14T00:26:46;12.90;;;7.47;;
75152;SDS011;63734;45.218;36.708;2023-06-14T00:29:12;11.50;;;7.28;;
75152;SDS011;63734;45.218;36.708;2023-06-14T00:31:38;13.50;;;8.32;;
75152;SDS011;63734;45.218;36.708;2023-06-14T00:34:04;14.85;;;7.35;;
75152;SDS011;63734;45.218;36.708;2023-06-14T00:36:31;12.38;;;8.07;;
75152;SDS011;63734;45.218;36.708;2023-06-14T00:38:57;13.38;;;7.50;;
75152;SDS011;63734;45.218;36.708;2023-06-14T00:41:23;13.15;;;7.53;;
75152;SDS011;63734;45.218;36.708;2023-06-14T00:43:50;17.45;;;7.10;;
75152;SDS011;63734;45.218;36.708;2023-06-14T00:46:16;9.75;;;6.30;;
75152;SDS011;63734;45.218;36.708;2023-06-14T00:48:42;14.02;;;6.13;;
75152;SDS011;63734;45.218;36.708;2023-06-14T00:51:08;13.10;;;8.43;;
75152;SDS011;63734;45.218;36.708;2023-06-14T00:53:35;17.63;;;8.70;;
75152;SDS011;63734;45.218;36.708;2023-06-14T00:56:01;16.05;;;7.90;;
75152;SDS011;63734;45.218;36.708;2023-06-14T00:58:27;15.48;;;7.65;;
75152;SDS011;63734;45.218;36.708;2023-06-14T01:00:54;10.07;;;6.70;;
75152;SDS011;63734;45.218;36.708;2023-06-14T01:03:20;17.10;;;6.82;;
75152;SDS011;63734;45.218;36.708;2023-06-14T01:05:49;8.88;;;6.15;;
75152;SDS011;63734;45.218;36.708;2023-06-14T01:11:18;12.18;;;8.27;;
75152;SDS011;63734;45.218;36.708;2023-06-14T01:13:52;11.15;;;8.25;;
75152;SDS011;63734;45.218;36.708;2023-06-14T01:16:21;14.77;;;7.95;;
75152;SDS011;63734;45.218;36.708;2023-06-14T01:18:47;10.52;;;6.63;;
75152;SDS011;63734;45.218;36.708;2023-06-14T01:21:21;11.15;;;7.07;;
75152;SDS011;63734;45.218;36.708;2023-06-14T01:23:49;11.38;;;7.72;;
75152;SDS011;63734;45.218;36.708;2023-06-14T01:26:22;12.80;;;7.32;;
75152;SDS011;63734;45.218;36.708;2023-06-14T01:28:50;13.07;;;9.10;;
75152;SDS011;63734;45.218;36.708;2023-06-14T01:31:23;13.50;;;7.93;;
75152;SDS011;63734;45.218;36.708;2023-06-14T01:33:50;14.98;;;8.00;;
75152;SDS011;63734;45.218;36.708;2023-06-14T01:36:20;12.88;;;8.05;;
75152;SDS011;63734;45.218;36.708;2023-06-14T01:38:48;17.50;;;9.65;;
75152;SDS011;63734;45.218;36.708;2023-06-14T01:41:17;15.68;;;9.45;;
75152;SDS011;63734;45.218;36.708;2023-06-14T01:43:45;14.80;;;7.43;;
75152;SDS011;63734;45.218;36.708;2023-06-14T01:46:12;14.25;;;9.45;;
75152;SDS011;63734;45.218;36.708;2023-06-14T01:48:40;14.68;;;9.82;;
75152;SDS011;63734;45.218;36.708;2023-06-14T01:51:06;19.45;;;9.15;;
75152;SDS011;63734;45.218;36.708;2023-06-14T01:53:32;18.38;;;10.48;;
75152;SDS011;63734;45.218;36.708;2023-06-14T01:55:58;17.20;;;9.98;;
75152;SDS011;63734;45.218;36.708;2023-06-14T01:58:24;16.33;;;9.63;;
75152;SDS011;63734;45.218;36.708;2023-06-14T02:00:50;19.77;;;10.35;;
75152;SDS011;63734;45.218;36.708;2023-06-14T02:03:16;17.50;;;10.60;;
75152;SDS011;63734;45.218;36.708;2023-06-14T02:05:44;13.63;;;9.40;;
75152;SDS011;63734;45.218;36.708;2023-06-14T02:08:10;17.92;;;9.82;;
75152;SDS011;63734;45.218;36.708;2023-06-14T02:10:36;16.60;;;9.68;;
75152;SDS011;63734;45.218;36.708;2023-06-14T02:13:02;17.05;;;10.18;;
75152;SDS011;63734;45.218;36.708;2023-06-14T02:15:28;15.30;;;8.88;;
75152;SDS011;63734;45.218;36.708;2023-06-14T02:18:00;15.77;;;9.15;;
75152;SDS011;63734;45.218;36.708;2023-06-14T02:20:31;18.92;;;11.50;;
75152;SDS011;63734;45.218;36.708;2023-06-14T02:22:58;23.58;;;12.35;;
75152;SDS011;63734;45.218;36.708;2023-06-14T02:25:24;18.83;;;10.85;;
75152;SDS011;63734;45.218;36.708;2023-06-14T02:27:50;17.20;;;11.30;;
75152;SDS011;63734;45.218;36.708;2023-06-14T02:30:16;20.15;;;11.55;;
75152;SDS011;63734;45.218;36.708;2023-06-14T02:32:42;20.05;;;13.25;;
75152;SDS011;63734;45.218;36.708;2023-06-14T02:35:08;20.90;;;15.32;;
75152;SDS011;63734;45.218;36.708;2023-06-14T02:37:34;18.15;;;10.63;;
75152;SDS011;63734;45.218;36.708;2023-06-14T02:40:00;14.75;;;9.43;;
75152;SDS011;63734;45.218;36.708;2023-06-14T02:42:26;22.27;;;11.00;;
75152;SDS011;63734;45.218;36.708;2023-06-14T02:44:52;16.23;;;10.73;;
75152;SDS011;63734;45.218;36.708;2023-06-14T02:47:20;18.02;;;10.65;;
75152;SDS011;63734;45.218;36.708;2023-06-14T02:49:46;16.42;;;11.20;;
75152;SDS011;63734;45.218;36.708;2023-06-14T02:52:13;16.90;;;10.98;;
75152;SDS011;63734;45.218;36.708;2023-06-14T02:54:40;18.05;;;10.55;;
75152;SDS011;63734;45.218;36.708;2023-06-14T02:57:08;15.18;;;10.80;;
75152;SDS011;63734;45.218;36.708;2023-06-14T02:59:34;19.30;;;11.57;;
75152;SDS011;63734;45.218;36.708;2023-06-14T03:02:02;16.55;;;9.93;;
75152;SDS011;63734;45.218;36.708;2023-06-14T03:04:30;19.35;;;10.40;;
75152;SDS011;63734;45.218;36.708;2023-06-14T03:07:06;20.08;;;9.85;;
75152;SDS011;63734;45.218;36.708;2023-06-14T03:09:37;14.57;;;8.60;;
75152;SDS011;63734;45.218;36.708;2023-06-14T03:12:06;14.75;;;8.55;;
75152;SDS011;63734;45.218;36.708;2023-06-14T03:14:33;17.38;;;9.25;;
75152;SDS011;63734;45.218;36.708;2023-06-14T03:17:00;12.52;;;8.43;;
75152;SDS011;63734;45.218;36.708;2023-06-14T03:19:27;19.17;;;8.48;;
75152;SDS011;63734;45.218;36.708;2023-06-14T03:21:54;15.40;;;8.68;;
75152;SDS011;63734;45.218;36.708;2023-06-14T03:24:39;16.75;;;8.88;;
75152;SDS011;63734;45.218;36.708;2023-06-14T03:27:10;20.25;;;9.70;;
75152;SDS011;63734;45.218;36.708;2023-06-14T03:29:41;16.63;;;9.32;;
75152;SDS011;63734;45.218;36.708;2023-06-14T03:32:08;14.27;;;8.82;;
75152;SDS011;63734;45.218;36.708;2023-06-14T03:34:40;14.67;;;8.13;;
75152;SDS011;63734;45.218;36.708;2023-06-14T03:37:10;17.45;;;9.45;;
75152;SDS011;63734;45.218;36.708;2023-06-14T03:39:37;15.48;;;8.57;;
75152;SDS011;63734;45.218;36.708;2023-06-14T03:42:03;12.65;;;7.53;;
75152;SDS011;63734;45.218;36.708;2023-06-14T03:44:30;14.10;;;8.57;;
75152;SDS011;63734;45.218;36.708;2023-06-14T03:46:56;18.73;;;9.93;;
75152;SDS011;63734;45.218;36.708;2023-06-14T03:49:23;15.02;;;8.30;;
75152;SDS011;63734;45.218;36.708;2023-06-14T03:51:49;14.50;;;8.48;;
75152;SDS011;63734;45.218;36.708;2023-06-14T03:54:18;14.82;;;8.95;;
75152;SDS011;63734;45.218;36.708;2023-06-14T03:56:47;14.65;;;9.88;;
75152;SDS011;63734;45.218;36.708;2023-06-14T03:59:13;19.58;;;16.00;;
75152;SDS011;63734;45.218;36.708;2023-06-14T04:01:39;28.30;;;25.38;;
75152;SDS011;63734;45.218;36.708;2023-06-14T04:04:13;29.25;;;23.77;;
75152;SDS011;63734;45.218;36.708;2023-06-14T04:06:40;38.97;;;33.88;;
75152;SDS011;63734;45.218;36.708;2023-06-14T04:09:07;54.60;;;44.50;;
75152;SDS011;63734;45.218;36.708;2023-06-14T04:11:34;46.53;;;40.03;;
75152;SDS011;63734;45.218;36.708;2023-06-14T04:14:01;71.18;;;50.85;;
75152;SDS011;63734;45.218;36.708;2023-06-14T04:16:28;57.30;;;45.53;;
75152;SDS011;63734;45.218;36.708;2023-06-14T04:18:54;81.05;;;53.58;;
75152;SDS011;63734;45.218;36.708;2023-06-14T04:21:22;126.85;;;68.25;;
75152;SDS011;63734;45.218;36.708;2023-06-14T04:23:50;288.20;;;101.90;;
75152;SDS011;63734;45.218;36.708;2023-06-14T04:26:21;370.60;;;116.20;;
75152;SDS011;63734;45.218;36.708;2023-06-14T04:28:50;355.10;;;114.80;;
75152;SDS011;63734;45.218;36.708;2023-06-14T04:31:17;194.77;;;73.57;;
75152;SDS011;63734;45.218;36.708;2023-06-14T04:33:44;17.05;;;8.02;;
75152;SDS011;63734;45.218;36.708;2023-06-14T04:36:16;18.52;;;8.93;;
75152;SDS011;63734;45.218;36.708;2023-06-14T04:38:45;16.35;;;9.30;;
75152;SDS011;63734;45.218;36.708;2023-06-14T04:41:12;24.15;;;20.65;;
75152;SDS011;63734;45.218;36.708;2023-06-14T04:43:40;36.75;;;32.85;;
75152;SDS011;63734;45.218;36.708;2023-06-14T04:46:09;54.35;;;44.28;;
75152;SDS011;63734;45.218;36.708;2023-06-14T04:48:40;153.60;;;70.57;;
75152;SDS011;63734;45.218;36.708;2023-06-14T04:51:09;13.38;;;7.38;;
75152;SDS011;63734;45.218;36.708;2023-06-14T04:53:35;13.57;;;6.63;;
75152;SDS011;63734;45.218;36.708;2023-06-14T04:56:03;16.88;;;8.35;;
75152;SDS011;63734;45.218;36.708;2023-06-14T04:58:31;21.95;;;9.98;;
75152;SDS011;63734;45.218;36.708;2023-06-14T05:00:58;24.02;;;12.50;;
75152;SDS011;63734;45.218;36.708;2023-06-14T05:03:25;15.98;;;9.27;;
75152;SDS011;63734;45.218;36.708;2023-06-14T05:05:52;16.17;;;9.48;;
75152;SDS011;63734;45.218;36.708;2023-06-14T05:08:20;21.63;;;10.32;;
75152;SDS011;63734;45.218;36.708;2023-06-14T05:10:49;16.27;;;9.93;;
75152;SDS011;63734;45.218;36.708;2023-06-14T05:13:15;13.50;;;9.23;;
75152;SDS011;63734;45.218;36.708;2023-06-14T05:15:41;18.92;;;11.68;;
75152;SDS011;63734;45.218;36.708;2023-06-14T05:18:07;18.02;;;10.20;;
75152;SDS011;63734;45.218;36.708;2023-06-14T05:20:34;15.52;;;9.60;;
75152;SDS011;63734;45.218;36.708;2023-06-14T05:23:02;18.42;;;10.68;;
75152;SDS011;63734;45.218;36.708;2023-06-14T05:25:28;17.17;;;11.23;;
75152;SDS011;63734;45.218;36.708;2023-06-14T05:27:54;18.30;;;11.82;;
75152;SDS011;63734;45.218;36.708;2023-06-14T05:30:20;21.98;;;15.65;;
75152;SDS011;63734;45.218;36.708;2023-06-14T05:32:46;24.70;;;17.17;;
75152;SDS011;63734;45.218;36.708;2023-06-14T05:35:12;23.67;;;17.55;;
75152;SDS011;63734;45.218;36.708;2023-06-14T05:37:38;35.22;;;30.60;;
75152;SDS011;63734;45.218;36.708;2023-06-14T05:40:04;57.40;;;46.33;;
75152;SDS011;63734;45.218;36.708;2023-06-14T05:42:34;211.32;;;86.70;;
75152;SDS011;63734;45.218;36.708;2023-06-14T05:45:00;69.07;;;41.80;;
75152;SDS011;63734;45.218;36.708;2023-06-14T05:47:26;238.35;;;93.47;;
75152;SDS011;63734;45.218;36.708;2023-06-14T05:49:53;107.15;;;64.57;;
75152;SDS011;63734;45.218;36.708;2023-06-14T05:52:20;108.15;;;63.60;;
75152;SDS011;63734;45.218;36.708;2023-06-14T05:54:46;196.48;;;85.85;;
75152;SDS011;63734;45.218;36.708;2023-06-14T05:57:12;94.85;;;59.28;;
75152;SDS011;63734;45.218;36.708;2023-06-14T05:59:38;88.70;;;57.55;;
75152;SDS011;63734;45.218;36.708;2023-06-14T06:02:04;108.80;;;65.30;;
75152;SDS011;63734;45.218;36.708;2023-06-14T06:04:30;193.70;;;84.95;;
75152;SDS011;63734;45.218;36.708;2023-06-14T06:06:56;89.43;;;56.97;;
75152;SDS011;63734;45.218;36.708;2023-06-14T06:09:22;96.40;;;59.83;;
75152;SDS011;63734;45.218;36.708;2023-06-14T06:11:48;56.90;;;45.28;;
75152;SDS011;63734;45.218;36.708;2023-06-14T06:14:14;62.42;;;46.97;;
75152;SDS011;63734;45.218;36.708;2023-06-14T06:16:40;111.13;;;65.90;;
75152;SDS011;63734;45.218;36.708;2023-06-14T06:19:06;183.77;;;82.10;;
75152;SDS011;63734;45.218;36.708;2023-06-14T06:21:32;120.28;;;66.88;;
75152;SDS011;63734;45.218;36.708;2023-06-14T06:23:58;138.65;;;72.13;;
75152;SDS011;63734;45.218;36.708;2023-06-14T06:26:24;161.75;;;76.97;;
75152;SDS011;63734;45.218;36.708;2023-06-14T06:28:52;147.20;;;73.03;;
75152;SDS011;63734;45.218;36.708;2023-06-14T06:31:17;181.77;;;80.78;;
75152;SDS011;63734;45.218;36.708;2023-06-14T06:33:43;218.30;;;89.75;;
75152;SDS011;63734;45.218;36.708;2023-06-14T06:36:09;248.65;;;94.68;;
75152;SDS011;63734;45.218;36.708;2023-06-14T06:38:35;291.52;;;102.35;;
75152;SDS011;63734;45.218;36.708;2023-06-14T06:41:01;16.88;;;9.55;;
75152;SDS011;63734;45.218;36.708;2023-06-14T06:43:27;16.92;;;9.80;;
75152;SDS011;63734;45.218;36.708;2023-06-14T06:45:56;39.92;;;32.63;;
75152;SDS011;63734;45.218;36.708;2023-06-14T06:48:22;113.13;;;61.05;;
75152;SDS011;63734;45.218;36.708;2023-06-14T06:50:48;29.90;;;22.45;;
75152;SDS011;63734;45.218;36.708;2023-06-14T06:53:14;71.82;;;50.30;;
75152;SDS011;63734;45.218;36.708;2023-06-14T06:55:40;25.77;;;16.50;;
75152;SDS011;63734;45.218;36.708;2023-06-14T06:58:06;126.25;;;64.75;;
75152;SDS011;63734;45.218;36.708;2023-06-14T07:00:32;239.20;;;89.22;;
75152;SDS011;63734;45.218;36.708;2023-06-14T07:02:58;15.10;;;8.93;;
75152;SDS011;63734;45.218;36.708;2023-06-14T07:05:24;15.63;;;7.72;;
75152;SDS011;63734;45.218;36.708;2023-06-14T07:07:50;14.45;;;8.65;;
75152;SDS011;63734;45.218;36.708;2023-06-14T07:10:16;14.95;;;8.63;;
75152;SDS011;63734;45.218;36.708;2023-06-14T07:12:42;16.15;;;9.02;;
75152;SDS011;63734;45.218;36.708;2023-06-14T07:15:08;13.13;;;7.75;;
75152;SDS011;63734;45.218;36.708;2023-06-14T07:17:35;14.15;;;7.63;;
75152;SDS011;63734;45.218;36.708;2023-06-14T07:20:02;15.88;;;8.88;;
75152;SDS011;63734;45.218;36.708;2023-06-14T07:22:37;12.05;;;8.25;;
75152;SDS011;63734;45.218;36.708;2023-06-14T07:25:08;11.48;;;7.65;;
75152;SDS011;63734;45.218;36.708;2023-06-14T07:27:34;14.98;;;9.23;;
75152;SDS011;63734;45.218;36.708;2023-06-14T07:30:00;14.93;;;7.47;;
75152;SDS011;63734;45.218;36.708;2023-06-14T07:32:26;12.88;;;7.45;;
75152;SDS011;63734;45.218;36.708;2023-06-14T07:34:52;13.23;;;7.93;;
75152;SDS011;63734;45.218;36.708;2023-06-14T07:37:18;15.15;;;8.27;;
75152;SDS011;63734;45.218;36.708;2023-06-14T07:39:44;17.25;;;9.02;;
75152;SDS011;63734;45.218;36.708;2023-06-14T07:42:10;19.00;;;8.13;;
75152;SDS011;63734;45.218;36.708;2023-06-14T07:44:36;16.85;;;8.18;;
75152;SDS011;63734;45.218;36.708;2023-06-14T07:47:02;17.02;;;9.00;;
75152;SDS011;63734;45.218;36.708;2023-06-14T07:49:28;15.95;;;8.95;;
75152;SDS011;63734;45.218;36.708;2023-06-14T07:51:54;12.40;;;8.30;;
75152;SDS011;63734;45.218;36.708;2023-06-14T07:54:20;22.52;;;9.38;;
75152;SDS011;63734;45.218;36.708;2023-06-14T07:56:50;17.08;;;9.00;;
75152;SDS011;63734;45.218;36.708;2023-06-14T07:59:16;13.70;;;8.70;;
75152;SDS011;63734;45.218;36.708;2023-06-14T08:01:42;14.95;;;9.00;;
75152;SDS011;63734;45.218;36.708;2023-06-14T08:04:12;17.27;;;8.63;;
75152;SDS011;63734;45.218;36.708;2023-06-14T08:06:39;16.30;;;8.75;;
75152;SDS011;63734;45.218;36.708;2023-06-14T08:09:05;13.20;;;8.93;;
75152;SDS011;63734;45.218;36.708;2023-06-14T08:11:31;14.25;;;9.80;;
75152;SDS011;63734;45.218;36.708;2023-06-14T08:13:57;13.07;;;9.13;;
75152;SDS011;63734;45.218;36.708;2023-06-14T08:16:22;15.98;;;9.00;;
75152;SDS011;63734;45.218;36.708;2023-06-14T08:18:48;15.18;;;9.20;;
75152;SDS011;63734;45.218;36.708;2023-06-14T08:21:15;11.52;;;8.43;;
75152;SDS011;63734;45.218;36.708;2023-06-14T08:23:41;20.25;;;9.95;;
75152;SDS011;63734;45.218;36.708;2023-06-14T08:26:12;13.73;;;8.68;;
75152;SDS011;63734;45.218;36.708;2023-06-14T08:28:38;16.30;;;8.73;;
75152;SDS011;63734;45.218;36.708;2023-06-14T08:31:04;14.60;;;9.55;;
75152;SDS011;63734;45.218;36.708;2023-06-14T08:33:31;14.50;;;9.63;;
75152;SDS011;63734;45.218;36.708;2023-06-14T08:36:00;17.35;;;10.15;;
75152;SDS011;63734;45.218;36.708;2023-06-14T08:38:26;21.65;;;9.68;;
75152;SDS011;63734;45.218;36.708;2023-06-14T08:40:52;17.10;;;9.55;;
75152;SDS011;63734;45.218;36.708;2023-06-14T08:43:22;13.18;;;8.40;;
75152;SDS011;63734;45.218;36.708;2023-06-14T08:45:48;15.70;;;10.23;;
75152;SDS011;63734;45.218;36.708;2023-06-14T08:48:19;16.08;;;9.70;;
75152;SDS011;63734;45.218;36.708;2023-06-14T08:50:46;18.05;;;9.98;;
75152;SDS011;63734;45.218;36.708;2023-06-14T08:53:13;18.52;;;9.35;;
75152;SDS011;63734;45.218;36.708;2023-06-14T08:55:45;17.52;;;9.55;;
75152;SDS011;63734;45.218;36.708;2023-06-14T08:58:13;15.02;;;8.82;;
75152;SDS011;63734;45.218;36.708;2023-06-14T09:00:39;11.90;;;8.35;;
75152;SDS011;63734;45.218;36.708;2023-06-14T09:03:08;14.93;;;8.25;;
75152;SDS011;63734;45.218;36.708;2023-06-14T09:05:38;11.45;;;8.00;;
75152;SDS011;63734;45.218;36.708;2023-06-14T09:08:05;12.57;;;8.02;;
75152;SDS011;63734;45.218;36.708;2023-06-14T09:10:31;17.55;;;8.20;;
75152;SDS011;63734;45.218;36.708;2023-06-14T09:13:21;12.30;;;7.47;;
75152;SDS011;63734;45.218;36.708;2023-06-14T09:15:46;10.95;;;6.70;;
75152;SDS011;63734;45.218;36.708;2023-06-14T09:18:12;14.70;;;9.43;;
75152;SDS011;63734;45.218;36.708;2023-06-14T09:20:38;13.48;;;8.77;;
75152;SDS011;63734;45.218;36.708;2023-06-14T09:23:06;27.67;;;10.70;;
75152;SDS011;63734;45.218;36.708;2023-06-14T09:25:41;16.55;;;8.25;;
75152;SDS011;63734;45.218;36.708;2023-06-14T09:28:08;10.93;;;5.93;;
75152;SDS011;63734;45.218;36.708;2023-06-14T09:30:34;28.80;;;22.60;;
75152;SDS011;63734;45.218;36.708;2023-06-14T09:33:02;123.70;;;58.08;;
75152;SDS011;63734;45.218;36.708;2023-06-14T09:35:28;48.85;;;38.63;;
75152;SDS011;63734;45.218;36.708;2023-06-14T09:37:57;236.93;;;87.15;;
75152;SDS011;63734;45.218;36.708;2023-06-14T09:40:23;178.50;;;77.90;;
75152;SDS011;63734;45.218;36.708;2023-06-14T09:42:50;54.15;;;42.60;;
75152;SDS011;63734;45.218;36.708;2023-06-14T09:45:17;174.45;;;78.50;;
75152;SDS011;63734;45.218;36.708;2023-06-14T09:47:49;338.50;;;109.18;;
75152;SDS011;63734;45.218;36.708;2023-06-14T09:50:17;414.00;;;130.65;;
75152;SDS011;63734;45.218;36.708;2023-06-14T09:52:43;260.60;;;98.20;;
75152;SDS011;63734;45.218;36.708;2023-06-14T09:55:12;134.68;;;69.35;;
75152;SDS011;63734;45.218;36.708;2023-06-14T09:57:41;157.68;;;74.60;;
75152;SDS011;63734;45.218;36.708;2023-06-14T10:00:09;85.93;;;55.53;;
75152;SDS011;63734;45.218;36.708;2023-06-14T10:02:38;138.27;;;68.40;;
75152;SDS011;63734;45.218;36.708;2023-06-14T10:05:08;249.77;;;93.88;;
75152;SDS011;63734;45.218;36.708;2023-06-14T10:07:44;286.05;;;100.45;;
75152;SDS011;63734;45.218;36.708;2023-06-14T10:10:16;340.88;;;110.03;;
75152;SDS011;63734;45.218;36.708;2023-06-14T10:12:42;327.13;;;108.07;;
75152;SDS011;63734;45.218;36.708;2023-06-14T10:15:09;246.30;;;94.70;;
75152;SDS011;63734;45.218;36.708;2023-06-14T10:17:52;344.88;;;111.20;;
75152;SDS011;63734;45.218;36.708;2023-06-14T10:23:08;382.90;;;118.43;;
75152;SDS011;63734;45.218;36.708;2023-06-14T10:25:38;358.42;;;113.78;;
75152;SDS011;63734;45.218;36.708;2023-06-14T10:33:33;414.60;;;123.35;;
75152;SDS011;63734;45.218;36.708;2023-06-14T10:36:27;275.15;;;97.18;;
75152;SDS011;63734;45.218;36.708;2023-06-14T10:38:57;314.25;;;105.78;;
75152;SDS011;63734;45.218;36.708;2023-06-14T10:41:25;341.88;;;111.57;;
75152;SDS011;63734;45.218;36.708;2023-06-14T10:44:10;141.23;;;69.95;;
75152;SDS011;63734;45.218;36.708;2023-06-14T10:46:58;188.85;;;79.80;;
75152;SDS011;63734;45.218;36.708;2023-06-14T10:49:39;173.48;;;76.82;;
75152;SDS011;63734;45.218;36.708;2023-06-14T10:52:12;170.93;;;77.13;;
75152;SDS011;63734;45.218;36.708;2023-06-14T10:57:26;315.15;;;106.28;;
75152;SDS011;63734;45.218;36.708;2023-06-14T10:59:53;383.58;;;119.35;;
75152;SDS011;63734;45.218;36.708;2023-06-14T11:05:16;11.23;;;6.88;;
75152;SDS011;63734;45.218;36.708;2023-06-14T11:08:11;13.07;;;7.50;;
75152;SDS011;63734;45.218;36.708;2023-06-14T11:11:05;14.48;;;8.30;;
75152;SDS011;63734;45.218;36.708;2023-06-14T11:13:32;11.73;;;7.07;;
75152;SDS011;63734;45.218;36.708;2023-06-14T11:15:59;12.35;;;8.18;;
75152;SDS011;63734;45.218;36.708;2023-06-14T11:18:25;24.00;;;8.80;;
75152;SDS011;63734;45.218;36.708;2023-06-14T11:20:52;19.92;;;11.20;;
75152;SDS011;63734;45.218;36.708;2023-06-14T11:23:19;15.95;;;9.70;;
75152;SDS011;63734;45.218;36.708;2023-06-14T11:25:50;16.90;;;10.52;;
75152;SDS011;63734;45.218;36.708;2023-06-14T11:28:16;16.80;;;10.40;;
75152;SDS011;63734;45.218;36.708;2023-06-14T11:30:45;21.65;;;17.15;;
75152;SDS011;63734;45.218;36.708;2023-06-14T11:33:15;23.20;;;18.17;;
75152;SDS011;63734;45.218;36.708;2023-06-14T11:35:43;104.10;;;59.22;;
75152;SDS011;63734;45.218;36.708;2023-06-14T11:38:10;15.77;;;8.13;;
75152;SDS011;63734;45.218;36.708;2023-06-14T11:40:37;11.85;;;5.88;;
75152;SDS011;63734;45.218;36.708;2023-06-14T11:43:04;33.38;;;30.02;;
75152;SDS011;63734;45.218;36.708;2023-06-14T11:45:30;340.40;;;108.35;;
75152;SDS011;63734;45.218;36.708;2023-06-14T11:47:57;405.17;;;120.72;;
75152;SDS011;63734;45.218;36.708;2023-06-14T11:50:24;102.45;;;47.08;;
75152;SDS011;63734;45.218;36.708;2023-06-14T11:52:57;109.75;;;61.88;;
75152;SDS011;63734;45.218;36.708;2023-06-14T11:55:38;144.15;;;69.82;;
75152;SDS011;63734;45.218;36.708;2023-06-14T11:58:05;277.55;;;96.60;;
75152;SDS011;63734;45.218;36.708;2023-06-14T12:00:32;419.25;;;122.95;;
75152;SDS011;63734;45.218;36.708;2023-06-14T12:03:00;392.05;;;118.72;;
75152;SDS011;63734;45.218;36.708;2023-06-14T12:05:26;331.30;;;107.55;;
75152;SDS011;63734;45.218;36.708;2023-06-14T12:07:59;408.40;;;121.18;;
75152;SDS011;63734;45.218;36.708;2023-06-14T12:10:26;112.53;;;60.13;;
75152;SDS011;63734;45.218;36.708;2023-06-14T12:12:56;149.52;;;72.15;;
75152;SDS011;63734;45.218;36.708;2023-06-14T12:15:28;215.32;;;86.03;;
75152;SDS011;63734;45.218;36.708;2023-06-14T12:17:57;358.02;;;113.35;;
75152;SDS011;63734;45.218;36.708;2023-06-14T12:20:28;132.85;;;36.53;;
75152;SDS011;63734;45.218;36.708;2023-06-14T12:22:55;8.85;;;4.50;;
75152;SDS011;63734;45.218;36.708;2023-06-14T12:25:24;10.35;;;5.03;;
75152;SDS011;63734;45.218;36.708;2023-06-14T12:28:10;8.50;;;4.32;;
75152;SDS011;63734;45.218;36.708;2023-06-14T12:30:36;8.55;;;4.45;;
75152;SDS011;63734;45.218;36.708;2023-06-14T12:33:05;9.18;;;4.63;;
75152;SDS011;63734;45.218;36.708;2023-06-14T12:35:32;6.68;;;3.88;;
75152;SDS011;63734;45.218;36.708;2023-06-14T12:37:58;7.43;;;4.50;;
75152;SDS011;63734;45.218;36.708;2023-06-14T12:40:25;7.18;;;4.55;;
75152;SDS011;63734;45.218;36.708;2023-06-14T12:42:51;8.82;;;4.88;;
75152;SDS011;63734;45.218;36.708;2023-06-14T12:45:17;6.90;;;4.45;;
75152;SDS011;63734;45.218;36.708;2023-06-14T12:47:47;6.75;;;3.92;;
75152;SDS011;63734;45.218;36.708;2023-06-14T12:50:19;9.00;;;4.78;;
75152;SDS011;63734;45.218;36.708;2023-06-14T12:52:45;5.63;;;3.75;;
75152;SDS011;63734;45.218;36.708;2023-06-14T12:55:11;5.85;;;4.20;;
75152;SDS011;63734;45.218;36.708;2023-06-14T12:57:37;7.85;;;4.63;;
75152;SDS011;63734;45.218;36.708;2023-06-14T13:00:03;5.75;;;3.88;;
75152;SDS011;63734;45.218;36.708;2023-06-14T13:02:30;6.40;;;3.97;;
75152;SDS011;63734;45.218;36.708;2023-06-14T13:04:56;7.68;;;4.18;;
75152;SDS011;63734;45.218;36.708;2023-06-14T13:07:24;8.20;;;4.13;;
75152;SDS011;63734;45.218;36.708;2023-06-14T13:09:50;6.15;;;4.05;;
75152;SDS011;63734;45.218;36.708;2023-06-14T13:12:16;8.93;;;4.30;;
75152;SDS011;63734;45.218;36.708;2023-06-14T13:14:42;10.98;;;4.95;;
75152;SDS011;63734;45.218;36.708;2023-06-14T13:17:08;10.10;;;3.78;;
75152;SDS011;63734;45.218;36.708;2023-06-14T13:19:35;27.25;;;6.53;;
75152;SDS011;63734;45.218;36.708;2023-06-14T13:22:01;26.42;;;6.22;;
75152;SDS011;63734;45.218;36.708;2023-06-14T13:24:29;6.15;;;3.65;;
75152;SDS011;63734;45.218;36.708;2023-06-14T13:26:55;6.63;;;3.85;;
75152;SDS011;63734;45.218;36.708;2023-06-14T13:29:22;6.88;;;4.13;;
75152;SDS011;63734;45.218;36.708;2023-06-14T13:31:49;6.18;;;3.92;;
75152;SDS011;63734;45.218;36.708;2023-06-14T13:34:15;6.50;;;4.15;;
75152;SDS011;63734;45.218;36.708;2023-06-14T13:36:41;8.32;;;4.30;;
75152;SDS011;63734;45.218;36.708;2023-06-14T13:39:07;8.38;;;4.93;;
75152;SDS011;63734;45.218;36.708;2023-06-14T13:41:33;5.30;;;3.83;;
75152;SDS011;63734;45.218;36.708;2023-06-14T13:44:00;9.65;;;4.88;;
75152;SDS011;63734;45.218;36.708;2023-06-14T13:46:29;7.32;;;4.93;;
75152;SDS011;63734;45.218;36.708;2023-06-14T13:48:56;5.63;;;4.00;;
75152;SDS011;63734;45.218;36.708;2023-06-14T13:51:23;6.40;;;4.05;;
75152;SDS011;63734;45.218;36.708;2023-06-14T13:53:49;9.15;;;5.25;;
75152;SDS011;63734;45.218;36.708;2023-06-14T13:56:16;10.13;;;4.82;;
75152;SDS011;63734;45.218;36.708;2023-06-14T13:58:42;13.73;;;6.60;;
75152;SDS011;63734;45.218;36.708;2023-06-14T14:01:08;7.97;;;5.05;;
75152;SDS011;63734;45.218;36.708;2023-06-14T14:03:35;12.73;;;5.00;;
75152;SDS011;63734;45.218;36.708;2023-06-14T14:06:01;12.52;;;7.75;;
75152;SDS011;63734;45.218;36.708;2023-06-14T14:08:28;8.73;;;6.40;;
75152;SDS011;63734;45.218;36.708;2023-06-14T14:10:54;12.90;;;10.52;;
75152;SDS011;63734;45.218;36.708;2023-06-14T14:13:21;243.80;;;87.88;;
75152;SDS011;63734;45.218;36.708;2023-06-14T14:15:47;315.23;;;104.70;;
75152;SDS011;63734;45.218;36.708;2023-06-14T14:18:14;373.65;;;113.03;;
75152;SDS011;63734;45.218;36.708;2023-06-14T14:20:40;328.40;;;106.18;;
75152;SDS011;63734;45.218;36.708;2023-06-14T14:23:06;487.38;;;135.73;;
75152;SDS011;63734;45.218;36.708;2023-06-14T14:25:32;570.70;;;148.68;;
75152;SDS011;63734;45.218;36.708;2023-06-14T14:27:58;13.63;;;7.97;;
75152;SDS011;63734;45.218;36.708;2023-06-14T14:30:24;11.98;;;8.35;;
75152;SDS011;63734;45.218;36.708;2023-06-14T14:32:50;9.40;;;5.30;;